SVA023 OERK-KJFK
Flight info
| Callsign | SVA023 |
|---|---|
| Flight time | N/A |
| Altitude | 32000 |
| Route | GOBMO T503 OVANO L768 MODAD B544 ALE M861 NISAP UM861 BUK UL621 ODERO T86 MATEL/N0487F340 T746 ARGES DCT ENIMA DCT EVRIK DCT EPARI DCT LANUX DCT RAPET T843 DEMAB L604 RELBI L602 RKN L980 TENLI L602 NALAX L46 GETNO DCT BAMLI DCT MOLAK DCT NETKI DCT RESNO/M084F360 NATB ELSIR/N0487F380 N406A TOPPS DCT ENE PARCH3 |
| Aircraft | B77W/H-SDE1E2E3FGHIJ2J3J4J5M1RWXY/LB1D1 |
Departure
| Time | 2026-05-08 06:26 |
|---|---|
| Airport | King Khalid International Airport (OERK) |
Arrival
| Time | N/A |
|---|---|
| Airport | John F. Kennedy International Airport (KJFK) |
| Time | Latitude | Longitude | Altitude | Speed | Heading |
|---|---|---|---|---|---|
| 2026-05-08 05:54 | 24.95692 | 46.70699 | 2035 ft | 0 kts | 240° |
| 2026-05-08 06:14 | 24.95692 | 46.70700 | 2035 ft | 2 kts | 240° |
| 2026-05-08 06:14 | 24.95700 | 46.70716 | 2044 ft | 4 kts | 240° |
| 2026-05-08 06:14 | 24.95713 | 46.70742 | 2040 ft | 3 kts | 240° |
| 2026-05-08 06:15 | 24.95735 | 46.70766 | 2045 ft | 4 kts | 183° |
| 2026-05-08 06:15 | 24.95752 | 46.70764 | 2044 ft | 4 kts | 155° |
| 2026-05-08 06:15 | 24.95771 | 46.70752 | 2043 ft | 0 kts | 150° |
| 2026-05-08 06:15 | 24.95754 | 46.70763 | 2044 ft | 4 kts | 150° |
| 2026-05-08 06:16 | 24.95731 | 46.70778 | 2044 ft | 4 kts | 150° |
| 2026-05-08 06:16 | 24.95725 | 46.70781 | 2044 ft | 0 kts | 150° |
| 2026-05-08 06:18 | 24.95712 | 46.70789 | 2039 ft | 6 kts | 150° |
| 2026-05-08 06:19 | 24.95650 | 46.70829 | 2043 ft | 15 kts | 150° |
| 2026-05-08 06:19 | 24.95553 | 46.70891 | 2043 ft | 16 kts | 150° |
| 2026-05-08 06:19 | 24.95455 | 46.70953 | 2042 ft | 16 kts | 150° |
| 2026-05-08 06:19 | 24.95377 | 46.71002 | 2043 ft | 9 kts | 150° |
| 2026-05-08 06:20 | 24.95337 | 46.71053 | 2044 ft | 10 kts | 96° |
| 2026-05-08 06:20 | 24.95355 | 46.71124 | 2045 ft | 10 kts | 62° |
| 2026-05-08 06:20 | 24.95389 | 46.71189 | 2043 ft | 10 kts | 59° |
| 2026-05-08 06:20 | 24.95423 | 46.71254 | 2041 ft | 10 kts | 65° |
| 2026-05-08 06:21 | 24.95396 | 46.71304 | 2043 ft | 8 kts | 146° |
| 2026-05-08 06:21 | 24.95338 | 46.71343 | 2045 ft | 13 kts | 149° |
| 2026-05-08 06:21 | 24.95236 | 46.71408 | 2042 ft | 20 kts | 150° |
| 2026-05-08 06:21 | 24.95116 | 46.71483 | 2044 ft | 20 kts | 149° |
| 2026-05-08 06:22 | 24.94996 | 46.71559 | 2039 ft | 20 kts | 150° |
| 2026-05-08 06:22 | 24.94877 | 46.71635 | 2046 ft | 20 kts | 150° |
| 2026-05-08 06:22 | 24.94757 | 46.71710 | 2046 ft | 20 kts | 150° |
| 2026-05-08 06:22 | 24.94637 | 46.71786 | 2043 ft | 20 kts | 150° |
| 2026-05-08 06:23 | 24.94517 | 46.71861 | 2045 ft | 20 kts | 150° |
| 2026-05-08 06:23 | 24.94398 | 46.71937 | 2045 ft | 19 kts | 150° |
| 2026-05-08 06:23 | 24.94330 | 46.71983 | 2046 ft | 8 kts | 141° |
| 2026-05-08 06:23 | 24.94306 | 46.72035 | 2043 ft | 8 kts | 92° |
| 2026-05-08 06:24 | 24.94324 | 46.72095 | 2042 ft | 8 kts | 65° |
| 2026-05-08 06:24 | 24.94350 | 46.72151 | 2045 ft | 8 kts | 63° |
| 2026-05-08 06:24 | 24.94377 | 46.72207 | 2045 ft | 8 kts | 60° |
| 2026-05-08 06:24 | 24.94411 | 46.72255 | 2047 ft | 8 kts | 20° |
| 2026-05-08 06:25 | 24.94464 | 46.72239 | 2045 ft | 6 kts | 329° |
| 2026-05-08 06:25 | 24.94468 | 46.72237 | 2041 ft | 0 kts | 330° |
| 2026-05-08 06:25 | 24.94569 | 46.72173 | 2044 ft | 46 kts | 330° |
| 2026-05-08 06:26 | 24.95094 | 46.71841 | 2041 ft | 124 kts | 330° |
| 2026-05-08 06:26 | 24.96043 | 46.71239 | 2045 ft | 193 kts | 329° |
| 2026-05-08 06:26 | 24.97299 | 46.70414 | 2485 ft | 214 kts | 331° |
| 2026-05-08 06:26 | 24.98623 | 46.69630 | 3341 ft | 221 kts | 335° |
| 2026-05-08 06:27 | 25.00012 | 46.68850 | 4219 ft | 225 kts | 336° |
| 2026-05-08 06:27 | 25.01488 | 46.68076 | 4983 ft | 245 kts | 337° |
| 2026-05-08 06:27 | 25.03035 | 46.67187 | 5747 ft | 257 kts | 324° |
| 2026-05-08 06:27 | 25.04358 | 46.65852 | 6601 ft | 257 kts | 315° |
| 2026-05-08 06:28 | 25.05621 | 46.64448 | 7122 ft | 259 kts | 315° |
| 2026-05-08 06:28 | 25.06914 | 46.63035 | 7496 ft | 266 kts | 314° |
| 2026-05-08 06:28 | 25.08279 | 46.61552 | 7696 ft | 284 kts | 314° |
| 2026-05-08 06:28 | 25.09694 | 46.60019 | 8051 ft | 293 kts | 314° |
| 2026-05-08 06:29 | 25.11167 | 46.58433 | 8518 ft | 298 kts | 314° |
| 2026-05-08 06:29 | 25.12664 | 46.56825 | 9069 ft | 302 kts | 314° |
| 2026-05-08 06:29 | 25.14180 | 46.55198 | 9587 ft | 307 kts | 314° |
| 2026-05-08 06:29 | 25.15721 | 46.53547 | 10136 ft | 310 kts | 313° |
| 2026-05-08 06:30 | 25.17301 | 46.51852 | 10418 ft | 325 kts | 313° |
| 2026-05-08 06:30 | 25.18974 | 46.50056 | 10535 ft | 344 kts | 313° |
| 2026-05-08 06:30 | 25.20737 | 46.48164 | 10697 ft | 363 kts | 313° |
| 2026-05-08 06:30 | 25.22594 | 46.46171 | 10896 ft | 380 kts | 313° |
| 2026-05-08 06:31 | 25.24517 | 46.44110 | 11293 ft | 389 kts | 313° |
| 2026-05-08 06:31 | 25.26481 | 46.42008 | 11816 ft | 395 kts | 313° |
| 2026-05-08 06:31 | 25.28465 | 46.39884 | 12438 ft | 398 kts | 313° |
| 2026-05-08 06:31 | 25.30435 | 46.37774 | 13057 ft | 401 kts | 313° |
| 2026-05-08 06:32 | 25.32469 | 46.35595 | 13763 ft | 401 kts | 312° |
| 2026-05-08 06:32 | 25.34471 | 46.33448 | 14430 ft | 402 kts | 312° |
| 2026-05-08 06:32 | 25.36454 | 46.31318 | 15018 ft | 404 kts | 312° |
| 2026-05-08 06:32 | 25.38475 | 46.29145 | 15573 ft | 407 kts | 312° |
| 2026-05-08 06:33 | 25.40510 | 46.26956 | 16154 ft | 409 kts | 312° |
| 2026-05-08 06:33 | 25.42560 | 46.24750 | 16740 ft | 412 kts | 312° |
| 2026-05-08 06:33 | 25.44617 | 46.22536 | 17325 ft | 414 kts | 312° |
| 2026-05-08 06:33 | 25.46688 | 46.20306 | 17895 ft | 417 kts | 312° |
| 2026-05-08 06:34 | 25.48772 | 46.18060 | 18378 ft | 421 kts | 311° |
| 2026-05-08 06:34 | 25.50889 | 46.15776 | 18787 ft | 425 kts | 311° |
| 2026-05-08 06:34 | 25.53016 | 46.13482 | 19271 ft | 427 kts | 311° |
| 2026-05-08 06:34 | 25.55149 | 46.11181 | 19741 ft | 430 kts | 311° |
| 2026-05-08 06:35 | 25.57305 | 46.08854 | 20188 ft | 433 kts | 311° |
| 2026-05-08 06:35 | 25.59443 | 46.06543 | 20617 ft | 436 kts | 311° |
| 2026-05-08 06:35 | 25.61623 | 46.04187 | 21043 ft | 440 kts | 311° |
| 2026-05-08 06:35 | 25.63819 | 46.01812 | 21487 ft | 443 kts | 311° |
| 2026-05-08 06:36 | 25.66036 | 45.99413 | 21916 ft | 446 kts | 311° |
| 2026-05-08 06:36 | 25.68270 | 45.96994 | 22326 ft | 450 kts | 311° |
| 2026-05-08 06:36 | 25.70517 | 45.94559 | 22695 ft | 454 kts | 311° |
| 2026-05-08 06:36 | 25.72786 | 45.92099 | 23067 ft | 458 kts | 310° |
| 2026-05-08 06:37 | 25.75075 | 45.89617 | 23457 ft | 461 kts | 310° |
| 2026-05-08 06:37 | 25.77377 | 45.87119 | 23790 ft | 464 kts | 310° |
| 2026-05-08 06:37 | 25.79690 | 45.84609 | 24151 ft | 466 kts | 310° |
| 2026-05-08 06:37 | 25.82016 | 45.82084 | 24548 ft | 467 kts | 310° |
| 2026-05-08 06:38 | 25.84340 | 45.79560 | 24946 ft | 468 kts | 310° |
| 2026-05-08 06:38 | 25.86642 | 45.77056 | 25298 ft | 470 kts | 309° |
| 2026-05-08 06:38 | 25.89010 | 45.74479 | 25670 ft | 471 kts | 309° |
| 2026-05-08 06:38 | 25.91324 | 45.71959 | 26015 ft | 473 kts | 309° |
| 2026-05-08 06:39 | 25.93678 | 45.69394 | 26355 ft | 475 kts | 309° |
| 2026-05-08 06:39 | 25.96042 | 45.66816 | 26700 ft | 477 kts | 309° |
| 2026-05-08 06:39 | 25.98411 | 45.64231 | 27033 ft | 479 kts | 309° |
| 2026-05-08 06:39 | 26.00796 | 45.61628 | 27359 ft | 480 kts | 309° |
| 2026-05-08 06:40 | 26.03185 | 45.59019 | 27683 ft | 482 kts | 309° |
| 2026-05-08 06:40 | 26.05580 | 45.56403 | 28003 ft | 483 kts | 309° |
| 2026-05-08 06:40 | 26.07981 | 45.53777 | 28314 ft | 485 kts | 309° |
| 2026-05-08 06:40 | 26.10390 | 45.51142 | 28600 ft | 486 kts | 309° |
| 2026-05-08 06:41 | 26.12802 | 45.48501 | 28933 ft | 487 kts | 308° |
| 2026-05-08 06:41 | 26.15220 | 45.45853 | 29229 ft | 488 kts | 308° |
| 2026-05-08 06:41 | 26.17648 | 45.43197 | 29471 ft | 490 kts | 309° |
| 2026-05-08 06:41 | 26.20122 | 45.40578 | 29728 ft | 492 kts | 310° |
| 2026-05-08 06:42 | 26.22627 | 45.37985 | 30082 ft | 491 kts | 310° |
| 2026-05-08 06:42 | 26.25133 | 45.35401 | 30426 ft | 489 kts | 310° |
| 2026-05-08 06:42 | 26.27623 | 45.32813 | 30632 ft | 491 kts | 309° |
| 2026-05-08 06:42 | 26.30117 | 45.30203 | 30782 ft | 493 kts | 309° |
| 2026-05-08 06:43 | 26.32615 | 45.27583 | 31015 ft | 493 kts | 309° |
| 2026-05-08 06:43 | 26.35110 | 45.24965 | 31258 ft | 493 kts | 309° |
| 2026-05-08 06:43 | 26.37612 | 45.22338 | 31492 ft | 493 kts | 308° |
| 2026-05-08 06:43 | 26.40109 | 45.19715 | 31704 ft | 493 kts | 308° |
| 2026-05-08 06:44 | 26.42608 | 45.17087 | 31879 ft | 495 kts | 308° |
| 2026-05-08 06:44 | 26.45099 | 45.14464 | 31934 ft | 498 kts | 308° |
| 2026-05-08 06:44 | 26.50131 | 45.09168 | 31979 ft | 495 kts | 308° |
| 2026-05-08 06:45 | 26.55126 | 45.03904 | 31987 ft | 493 kts | 308° |
| 2026-05-08 06:45 | 26.60104 | 44.98650 | 32013 ft | 492 kts | 307° |
| 2026-05-08 06:46 | 26.65082 | 44.93397 | 31994 ft | 492 kts | 307° |
| 2026-05-08 06:46 | 26.70070 | 44.88129 | 31988 ft | 493 kts | 307° |
| 2026-05-08 06:47 | 26.75020 | 44.82892 | 31984 ft | 494 kts | 307° |
| 2026-05-08 06:47 | 26.80014 | 44.77596 | 31985 ft | 495 kts | 307° |
| 2026-05-08 06:48 | 26.85004 | 44.72279 | 31979 ft | 495 kts | 307° |
| 2026-05-08 06:48 | 26.89999 | 44.66948 | 31990 ft | 496 kts | 307° |
| 2026-05-08 06:49 | 26.94999 | 44.61608 | 31982 ft | 496 kts | 307° |
| 2026-05-08 06:49 | 26.99996 | 44.56265 | 31986 ft | 496 kts | 306° |
| 2026-05-08 06:50 | 27.05001 | 44.50925 | 31979 ft | 497 kts | 306° |
| 2026-05-08 06:50 | 27.10009 | 44.45581 | 31966 ft | 497 kts | 306° |
| 2026-05-08 06:51 | 27.15012 | 44.40232 | 31993 ft | 497 kts | 306° |
| 2026-05-08 06:51 | 27.19982 | 44.34909 | 31977 ft | 496 kts | 306° |
| 2026-05-08 06:52 | 27.24974 | 44.29552 | 31969 ft | 496 kts | 306° |
| 2026-05-08 06:52 | 27.29955 | 44.24198 | 31977 ft | 496 kts | 306° |
| 2026-05-08 06:53 | 27.34934 | 44.18839 | 31977 ft | 495 kts | 306° |
| 2026-05-08 06:53 | 27.39912 | 44.13474 | 31964 ft | 494 kts | 306° |
| 2026-05-08 06:54 | 27.44871 | 44.08125 | 31977 ft | 493 kts | 306° |
| 2026-05-08 06:54 | 27.49831 | 44.02764 | 31991 ft | 493 kts | 306° |
| 2026-05-08 06:55 | 27.54784 | 43.97404 | 31980 ft | 494 kts | 306° |
| 2026-05-08 06:55 | 27.59739 | 43.92036 | 31975 ft | 494 kts | 306° |
| 2026-05-08 06:56 | 27.64700 | 43.86653 | 31969 ft | 495 kts | 306° |
| 2026-05-08 06:56 | 27.69663 | 43.81263 | 31988 ft | 495 kts | 306° |
| 2026-05-08 06:57 | 27.74596 | 43.75896 | 31981 ft | 496 kts | 306° |
| 2026-05-08 06:57 | 27.79566 | 43.70483 | 31972 ft | 496 kts | 306° |
| 2026-05-08 06:58 | 27.84533 | 43.65067 | 31972 ft | 496 kts | 306° |
| 2026-05-08 06:58 | 27.89324 | 43.59511 | 31965 ft | 491 kts | 303° |
| 2026-05-08 06:59 | 27.93951 | 43.53829 | 31966 ft | 490 kts | 302° |
| 2026-05-08 06:59 | 27.98579 | 43.48173 | 31993 ft | 489 kts | 303° |
| 2026-05-08 07:00 | 28.03201 | 43.42574 | 32010 ft | 490 kts | 303° |
| 2026-05-08 07:00 | 28.07873 | 43.36931 | 32000 ft | 491 kts | 303° |
| 2026-05-08 07:01 | 28.12541 | 43.31288 | 31987 ft | 491 kts | 303° |
| 2026-05-08 07:01 | 28.17211 | 43.25631 | 32000 ft | 491 kts | 303° |
| 2026-05-08 07:02 | 28.21084 | 43.20931 | 32013 ft | 491 kts | 303° |
| 2026-05-08 07:02 | 28.25752 | 43.15258 | 32006 ft | 493 kts | 303° |
| 2026-05-08 07:03 | 28.30432 | 43.09564 | 32002 ft | 493 kts | 303° |
| 2026-05-08 07:03 | 28.35112 | 43.03864 | 32001 ft | 493 kts | 303° |
| 2026-05-08 07:04 | 28.39786 | 42.98163 | 32012 ft | 493 kts | 304° |
| 2026-05-08 07:04 | 28.44462 | 42.92451 | 32009 ft | 493 kts | 304° |
| 2026-05-08 07:05 | 28.49098 | 42.86780 | 32015 ft | 492 kts | 304° |
| 2026-05-08 07:05 | 28.53751 | 42.81080 | 32006 ft | 491 kts | 304° |
| 2026-05-08 07:06 | 28.58392 | 42.75386 | 32011 ft | 490 kts | 304° |
| 2026-05-08 07:06 | 28.63019 | 42.69701 | 32010 ft | 489 kts | 304° |
| 2026-05-08 07:07 | 28.67647 | 42.64004 | 32014 ft | 489 kts | 304° |
| 2026-05-08 07:07 | 28.72255 | 42.58312 | 32037 ft | 489 kts | 304° |
| 2026-05-08 07:08 | 28.76858 | 42.52616 | 32028 ft | 488 kts | 304° |
| 2026-05-08 07:08 | 28.81456 | 42.46921 | 32022 ft | 487 kts | 304° |
| 2026-05-08 07:09 | 28.86042 | 42.41233 | 32021 ft | 486 kts | 304° |
| 2026-05-08 07:09 | 28.90590 | 42.35581 | 32035 ft | 486 kts | 306° |
| 2026-05-08 07:10 | 28.95156 | 42.29902 | 32031 ft | 485 kts | 306° |
| 2026-05-08 07:10 | 28.99708 | 42.24232 | 32033 ft | 484 kts | 306° |
| 2026-05-08 07:11 | 29.04251 | 42.18564 | 32051 ft | 483 kts | 306° |
| 2026-05-08 07:11 | 29.08794 | 42.12895 | 32035 ft | 484 kts | 306° |
| 2026-05-08 07:12 | 29.13335 | 42.07225 | 32036 ft | 484 kts | 306° |
| 2026-05-08 07:12 | 29.17879 | 42.01542 | 32047 ft | 484 kts | 306° |
| 2026-05-08 07:13 | 29.22419 | 41.95850 | 32054 ft | 484 kts | 307° |
| 2026-05-08 07:13 | 29.26967 | 41.90145 | 32046 ft | 484 kts | 307° |
| 2026-05-08 07:14 | 29.31479 | 41.84478 | 32054 ft | 484 kts | 307° |
| 2026-05-08 07:14 | 29.36008 | 41.78780 | 32048 ft | 483 kts | 307° |
| 2026-05-08 07:15 | 29.40531 | 41.73081 | 32060 ft | 482 kts | 308° |
| 2026-05-08 07:15 | 29.45044 | 41.67385 | 32051 ft | 481 kts | 308° |
| 2026-05-08 07:16 | 29.49534 | 41.61712 | 32052 ft | 479 kts | 308° |
| 2026-05-08 07:16 | 29.54015 | 41.56041 | 32068 ft | 479 kts | 308° |
| 2026-05-08 07:17 | 29.58486 | 41.50374 | 32065 ft | 478 kts | 308° |
| 2026-05-08 07:17 | 29.62916 | 41.44751 | 32063 ft | 478 kts | 308° |
| 2026-05-08 07:18 | 29.67372 | 41.39087 | 32061 ft | 478 kts | 308° |
| 2026-05-08 07:18 | 29.71822 | 41.33423 | 32083 ft | 478 kts | 309° |
| 2026-05-08 07:19 | 29.76525 | 41.27988 | 32077 ft | 480 kts | 315° |
| 2026-05-08 07:19 | 29.81551 | 41.22900 | 32067 ft | 481 kts | 315° |
| 2026-05-08 07:20 | 29.86568 | 41.17811 | 32069 ft | 481 kts | 315° |
| 2026-05-08 07:20 | 29.91569 | 41.12690 | 32076 ft | 481 kts | 315° |
| 2026-05-08 07:21 | 29.96557 | 41.07557 | 32056 ft | 480 kts | 315° |
| 2026-05-08 07:21 | 30.01539 | 41.02421 | 32059 ft | 480 kts | 315° |
| 2026-05-08 07:22 | 30.06513 | 40.97288 | 32070 ft | 479 kts | 315° |
| 2026-05-08 07:22 | 30.11444 | 40.92193 | 32070 ft | 479 kts | 315° |
| 2026-05-08 07:23 | 30.16318 | 40.87151 | 32065 ft | 478 kts | 315° |
| 2026-05-08 07:23 | 30.21274 | 40.82016 | 32062 ft | 478 kts | 315° |
| 2026-05-08 07:24 | 30.26217 | 40.76888 | 32059 ft | 477 kts | 315° |
| 2026-05-08 07:24 | 30.31155 | 40.71756 | 32067 ft | 477 kts | 315° |
| 2026-05-08 07:25 | 30.36099 | 40.66612 | 32071 ft | 477 kts | 315° |
| 2026-05-08 07:26 | 30.43535 | 40.58929 | 32075 ft | 478 kts | 315° |
| 2026-05-08 07:26 | 30.48528 | 40.53836 | 32070 ft | 478 kts | 315° |
| 2026-05-08 07:27 | 30.53519 | 40.48733 | 32068 ft | 478 kts | 315° |
| 2026-05-08 07:27 | 30.58472 | 40.43651 | 32067 ft | 478 kts | 315° |
| 2026-05-08 07:28 | 30.63451 | 40.38532 | 32064 ft | 477 kts | 315° |
| 2026-05-08 07:28 | 30.68418 | 40.33417 | 32065 ft | 477 kts | 315° |
| 2026-05-08 07:29 | 30.73381 | 40.28299 | 32068 ft | 476 kts | 315° |
| 2026-05-08 07:29 | 30.78335 | 40.23182 | 32084 ft | 476 kts | 315° |
| 2026-05-08 07:30 | 30.83249 | 40.18101 | 32065 ft | 475 kts | 315° |
| 2026-05-08 07:30 | 30.88177 | 40.12998 | 32060 ft | 473 kts | 315° |
| 2026-05-08 07:31 | 30.93089 | 40.07905 | 32061 ft | 472 kts | 315° |
| 2026-05-08 07:31 | 30.97994 | 40.02810 | 32068 ft | 472 kts | 315° |
| 2026-05-08 07:32 | 31.02890 | 39.97717 | 32061 ft | 471 kts | 315° |
| 2026-05-08 07:32 | 31.07780 | 39.92624 | 32057 ft | 471 kts | 315° |
| 2026-05-08 07:33 | 31.12664 | 39.87530 | 32067 ft | 471 kts | 315° |
| 2026-05-08 07:33 | 31.17552 | 39.82423 | 32053 ft | 471 kts | 315° |
| 2026-05-08 07:34 | 31.22396 | 39.77356 | 32057 ft | 471 kts | 316° |
| 2026-05-08 07:34 | 31.27301 | 39.72217 | 32049 ft | 470 kts | 316° |
| 2026-05-08 07:35 | 31.32168 | 39.67111 | 32056 ft | 470 kts | 316° |
| 2026-05-08 07:35 | 31.36999 | 39.62035 | 32052 ft | 470 kts | 316° |
| 2026-05-08 07:36 | 31.41858 | 39.56921 | 32053 ft | 469 kts | 316° |
| 2026-05-08 07:36 | 31.46713 | 39.51800 | 32049 ft | 469 kts | 316° |
| 2026-05-08 07:37 | 31.51558 | 39.46670 | 32058 ft | 469 kts | 316° |
| 2026-05-08 07:37 | 31.56391 | 39.41544 | 32050 ft | 469 kts | 316° |
| 2026-05-08 07:38 | 31.61194 | 39.36443 | 32059 ft | 469 kts | 316° |
| 2026-05-08 07:38 | 31.66032 | 39.31299 | 32055 ft | 468 kts | 316° |
| 2026-05-08 07:39 | 31.70854 | 39.26164 | 32052 ft | 467 kts | 316° |
| 2026-05-08 07:39 | 31.75667 | 39.21030 | 32056 ft | 467 kts | 316° |
| 2026-05-08 07:40 | 31.80716 | 39.16239 | 32057 ft | 468 kts | 325° |
| 2026-05-08 07:40 | 31.86410 | 39.12524 | 32058 ft | 469 kts | 332° |
| 2026-05-08 07:41 | 31.92268 | 39.09143 | 32058 ft | 469 kts | 332° |
| 2026-05-08 07:41 | 31.98104 | 39.05710 | 32056 ft | 469 kts | 332° |
| 2026-05-08 07:42 | 32.03933 | 39.02255 | 32056 ft | 469 kts | 332° |
| 2026-05-08 07:42 | 32.09766 | 38.98820 | 32060 ft | 469 kts | 332° |
| 2026-05-08 07:43 | 32.15569 | 38.95404 | 32056 ft | 469 kts | 332° |
| 2026-05-08 07:43 | 32.21413 | 38.91956 | 32053 ft | 469 kts | 332° |
| 2026-05-08 07:44 | 32.27246 | 38.88506 | 32054 ft | 469 kts | 332° |
| 2026-05-08 07:44 | 32.33084 | 38.85050 | 32050 ft | 468 kts | 332° |
| 2026-05-08 07:45 | 32.38896 | 38.81602 | 32059 ft | 467 kts | 332° |
| 2026-05-08 07:45 | 32.44691 | 38.78160 | 32048 ft | 465 kts | 332° |
| 2026-05-08 07:46 | 32.50431 | 38.74746 | 32047 ft | 464 kts | 331° |
| 2026-05-08 07:46 | 32.56222 | 38.71393 | 32039 ft | 464 kts | 336° |
| 2026-05-08 07:47 | 32.62475 | 38.69382 | 32061 ft | 467 kts | 348° |
| 2026-05-08 07:47 | 32.68976 | 38.68845 | 32059 ft | 470 kts | 355° |
| 2026-05-08 07:48 | 32.75522 | 38.68625 | 32048 ft | 470 kts | 355° |
| 2026-05-08 07:48 | 32.82070 | 38.68359 | 32051 ft | 471 kts | 355° |
| 2026-05-08 07:49 | 32.88633 | 38.68057 | 32051 ft | 472 kts | 354° |
| 2026-05-08 07:49 | 32.95194 | 38.67751 | 32055 ft | 472 kts | 355° |
| 2026-05-08 07:50 | 33.01768 | 38.67448 | 32053 ft | 473 kts | 355° |
| 2026-05-08 07:50 | 33.08305 | 38.67145 | 32058 ft | 474 kts | 354° |
| 2026-05-08 07:51 | 33.14894 | 38.66838 | 32054 ft | 474 kts | 354° |
| 2026-05-08 07:51 | 33.21486 | 38.66530 | 32060 ft | 474 kts | 354° |
| 2026-05-08 07:52 | 33.28088 | 38.66222 | 32069 ft | 474 kts | 354° |
| 2026-05-08 07:52 | 33.33574 | 38.65976 | 32065 ft | 474 kts | 354° |
| 2026-05-08 07:53 | 33.40172 | 38.65720 | 32062 ft | 474 kts | 354° |
| 2026-05-08 07:53 | 33.46722 | 38.65112 | 32058 ft | 470 kts | 346° |
| 2026-05-08 07:54 | 33.52991 | 38.63075 | 32065 ft | 464 kts | 335° |
| 2026-05-08 07:54 | 33.58926 | 38.60073 | 32065 ft | 462 kts | 334° |
| 2026-05-08 07:55 | 33.64845 | 38.57018 | 32060 ft | 463 kts | 334° |
| 2026-05-08 07:55 | 33.70767 | 38.53989 | 32062 ft | 463 kts | 334° |
| 2026-05-08 07:56 | 33.76700 | 38.50974 | 32071 ft | 463 kts | 334° |
| 2026-05-08 07:56 | 33.82630 | 38.47960 | 32064 ft | 463 kts | 334° |
| 2026-05-08 07:57 | 33.88519 | 38.44963 | 32063 ft | 462 kts | 334° |
| 2026-05-08 07:57 | 33.94440 | 38.41944 | 32060 ft | 462 kts | 334° |
| 2026-05-08 07:58 | 34.00371 | 38.38914 | 32060 ft | 462 kts | 334° |
| 2026-05-08 07:58 | 34.06290 | 38.35887 | 32062 ft | 462 kts | 334° |
| 2026-05-08 07:59 | 34.12208 | 38.32855 | 32052 ft | 462 kts | 334° |
| 2026-05-08 07:59 | 34.18136 | 38.29813 | 32066 ft | 462 kts | 334° |
| 2026-05-08 08:00 | 34.24054 | 38.26772 | 32079 ft | 462 kts | 334° |
| 2026-05-08 08:00 | 34.29930 | 38.23748 | 32060 ft | 462 kts | 334° |
| 2026-05-08 08:01 | 34.35843 | 38.20700 | 32063 ft | 462 kts | 334° |
| 2026-05-08 08:01 | 34.41755 | 38.17647 | 32079 ft | 461 kts | 334° |
| 2026-05-08 08:02 | 34.47668 | 38.14589 | 32079 ft | 462 kts | 334° |
| 2026-05-08 08:02 | 34.53567 | 38.11522 | 32085 ft | 461 kts | 333° |
| 2026-05-08 08:03 | 34.59429 | 38.08358 | 32079 ft | 460 kts | 333° |
| 2026-05-08 08:03 | 34.65252 | 38.05178 | 32086 ft | 458 kts | 333° |
| 2026-05-08 08:04 | 34.71071 | 38.02006 | 32090 ft | 458 kts | 333° |
| 2026-05-08 08:04 | 34.76885 | 37.98840 | 32103 ft | 457 kts | 333° |
| 2026-05-08 08:05 | 34.82656 | 37.95697 | 32095 ft | 457 kts | 333° |
| 2026-05-08 08:05 | 34.88457 | 37.92533 | 32096 ft | 456 kts | 333° |
| 2026-05-08 08:06 | 34.94251 | 37.89366 | 32094 ft | 456 kts | 333° |
| 2026-05-08 08:06 | 35.00034 | 37.86201 | 32108 ft | 456 kts | 333° |
| 2026-05-08 08:07 | 35.05813 | 37.83033 | 32096 ft | 455 kts | 333° |
| 2026-05-08 08:07 | 35.11589 | 37.79862 | 32085 ft | 455 kts | 333° |
| 2026-05-08 08:08 | 35.17347 | 37.76696 | 32090 ft | 454 kts | 333° |
| 2026-05-08 08:08 | 35.23108 | 37.73523 | 32093 ft | 454 kts | 333° |
| 2026-05-08 08:09 | 35.28861 | 37.70349 | 32097 ft | 453 kts | 333° |
| 2026-05-08 08:09 | 35.34611 | 37.67173 | 32093 ft | 453 kts | 333° |
| 2026-05-08 08:10 | 35.40323 | 37.64012 | 32090 ft | 452 kts | 332° |
| 2026-05-08 08:10 | 35.46048 | 37.60839 | 32096 ft | 452 kts | 332° |
| 2026-05-08 08:11 | 35.51769 | 37.57664 | 32115 ft | 451 kts | 332° |
| 2026-05-08 08:11 | 35.57493 | 37.54481 | 32102 ft | 451 kts | 332° |
| 2026-05-08 08:12 | 35.63208 | 37.51298 | 32098 ft | 451 kts | 332° |
| 2026-05-08 08:12 | 35.68914 | 37.48116 | 32098 ft | 450 kts | 332° |
| 2026-05-08 08:13 | 35.74623 | 37.44927 | 32115 ft | 450 kts | 332° |
| 2026-05-08 08:13 | 35.80324 | 37.41737 | 32101 ft | 449 kts | 332° |
| 2026-05-08 08:14 | 35.86007 | 37.38553 | 32094 ft | 448 kts | 332° |
| 2026-05-08 08:14 | 35.91681 | 37.35367 | 32112 ft | 447 kts | 332° |
| 2026-05-08 08:15 | 35.97310 | 37.32219 | 32136 ft | 447 kts | 333° |
| 2026-05-08 08:15 | 36.02998 | 37.29119 | 32134 ft | 447 kts | 333° |
| 2026-05-08 08:16 | 36.08682 | 37.26017 | 32128 ft | 445 kts | 333° |
| 2026-05-08 08:16 | 36.14342 | 37.22913 | 32128 ft | 444 kts | 333° |
| 2026-05-08 08:17 | 36.19757 | 37.19312 | 32139 ft | 440 kts | 324° |
| 2026-05-08 08:17 | 36.24659 | 37.14789 | 32137 ft | 440 kts | 321° |
| 2026-05-08 08:18 | 36.29554 | 37.10222 | 32130 ft | 440 kts | 321° |
| 2026-05-08 08:18 | 36.34463 | 37.05670 | 32121 ft | 441 kts | 321° |
| 2026-05-08 08:19 | 36.39380 | 37.01104 | 32116 ft | 441 kts | 321° |
| 2026-05-08 08:19 | 36.44265 | 36.96504 | 32100 ft | 440 kts | 321° |
| 2026-05-08 08:20 | 36.49112 | 36.91919 | 32108 ft | 440 kts | 321° |
| 2026-05-08 08:20 | 36.53993 | 36.87298 | 32103 ft | 441 kts | 321° |